createdAt,value
2023-03-08T00:01:31.872Z,3.90
2023-03-08T00:03:59.009Z,4.00
2023-03-08T00:06:27.655Z,4.10
2023-03-08T00:08:56.227Z,4.00
2023-03-08T00:11:23.225Z,4.00
2023-03-08T00:13:50.070Z,4.00
2023-03-08T00:16:17.122Z,4.00
2023-03-08T00:18:44.587Z,4.00
2023-03-08T00:21:18.766Z,4.00
2023-03-08T00:23:46.167Z,4.00
2023-03-08T00:26:13.792Z,4.00
2023-03-08T00:28:41.469Z,4.00
2023-03-08T00:31:11.318Z,4.00
2023-03-08T00:33:38.276Z,4.00
2023-03-08T00:36:09.508Z,4.00
2023-03-08T00:38:37.153Z,4.00
2023-03-08T00:41:04.418Z,4.00
2023-03-08T00:43:31.596Z,4.10
2023-03-08T00:45:58.770Z,4.00
2023-03-08T00:48:25.831Z,4.10
2023-03-08T00:50:53.054Z,4.00
2023-03-08T00:53:19.878Z,4.00
2023-03-08T00:55:54.814Z,4.00
2023-03-08T00:58:22.590Z,4.10
2023-03-08T01:00:50.151Z,4.00
2023-03-08T01:03:18.139Z,4.00
2023-03-08T01:05:51.850Z,4.10
2023-03-08T01:08:19.000Z,4.10
2023-03-08T01:10:59.507Z,4.10
2023-03-08T01:13:32.368Z,4.10
2023-03-08T01:16:00.117Z,4.10
2023-03-08T01:18:27.316Z,4.10
2023-03-08T01:21:02.605Z,4.10
2023-03-08T01:23:29.455Z,4.10
2023-03-08T01:26:05.644Z,4.20
2023-03-08T01:28:33.709Z,4.10
2023-03-08T01:31:05.920Z,4.20
2023-03-08T01:33:32.942Z,4.20
2023-03-08T01:36:00.313Z,4.20
2023-03-08T01:38:27.237Z,4.10
2023-03-08T01:40:58.534Z,4.20
2023-03-08T01:43:30.202Z,4.20
2023-03-08T01:46:08.038Z,4.30
2023-03-08T01:48:46.099Z,4.20
2023-03-08T01:51:17.672Z,4.20
2023-03-08T01:53:44.745Z,4.30
2023-03-08T01:56:15.424Z,4.20
2023-03-08T01:58:45.097Z,4.20
2023-03-08T02:01:15.485Z,4.20
2023-03-08T02:03:42.347Z,4.20
2023-03-08T02:06:09.779Z,4.10
2023-03-08T02:08:37.039Z,4.10
2023-03-08T02:11:04.160Z,4.10
2023-03-08T02:13:31.268Z,4.10
2023-03-08T02:18:54.501Z,4.10
2023-03-08T02:28:39.218Z,4.10
2023-03-08T02:31:06.173Z,4.00
2023-03-08T02:33:34.879Z,4.00
2023-03-08T02:36:04.612Z,4.10
2023-03-08T02:38:31.841Z,4.10
2023-03-08T02:40:58.876Z,4.10
2023-03-08T02:43:26.063Z,4.10
2023-03-08T02:45:52.897Z,4.10
2023-03-08T02:48:21.125Z,4.10
2023-03-08T02:50:48.030Z,4.00
2023-03-08T02:53:14.773Z,4.00
2023-03-08T03:12:08.091Z,4.00
2023-03-08T03:14:34.956Z,4.00
2023-03-08T03:17:01.875Z,4.10
2023-03-08T03:19:28.782Z,4.10
2023-03-08T03:21:55.701Z,4.10
2023-03-08T03:24:22.507Z,4.10
2023-03-08T03:26:52.711Z,4.20
2023-03-08T03:29:19.650Z,4.20
2023-03-08T03:31:48.582Z,4.30
2023-03-08T03:34:15.476Z,4.20
2023-03-08T03:36:42.145Z,4.20
2023-03-08T03:39:08.992Z,4.20
2023-03-08T03:41:36.400Z,4.20
2023-03-08T03:44:03.184Z,4.20
2023-03-08T03:46:30.037Z,4.20
2023-03-08T03:48:57.092Z,4.20
2023-03-08T03:51:24.034Z,4.10
2023-03-08T03:53:51.982Z,4.10
2023-03-08T03:56:21.601Z,4.10
2023-03-08T03:58:49.655Z,4.10
2023-03-08T04:01:22.397Z,4.10
2023-03-08T04:03:49.816Z,4.10
2023-03-08T04:06:19.898Z,4.00
2023-03-08T04:08:47.050Z,4.00
2023-03-08T04:11:17.095Z,4.10
2023-03-08T04:13:44.599Z,4.10
2023-03-08T04:16:22.671Z,4.00
2023-03-08T04:18:54.350Z,4.10
2023-03-08T04:21:21.746Z,4.10
2023-03-08T04:23:48.906Z,4.10
2023-03-08T04:26:15.784Z,4.10
2023-03-08T04:28:43.988Z,4.10
2023-03-08T04:31:21.241Z,4.10
2023-03-08T04:33:48.547Z,4.10
2023-03-08T04:36:16.719Z,4.00
2023-03-08T04:38:44.020Z,4.00
2023-03-08T04:41:13.545Z,4.00
2023-03-08T04:43:52.155Z,4.00
2023-03-08T04:46:22.027Z,4.10
2023-03-08T04:48:49.049Z,4.10
2023-03-08T04:51:17.711Z,4.10
2023-03-08T04:53:45.562Z,4.00
2023-03-08T04:56:14.304Z,4.10
2023-03-08T04:58:41.910Z,4.00
2023-03-08T05:01:12.565Z,4.00
2023-03-08T05:03:39.853Z,4.10
2023-03-08T05:06:07.143Z,4.00
2023-03-08T05:08:35.253Z,4.00
2023-03-08T05:11:02.874Z,4.00
2023-03-08T05:13:32.674Z,4.00
2023-03-08T05:15:59.633Z,4.00
2023-03-08T05:18:26.683Z,4.00
2023-03-08T05:20:58.389Z,4.00
2023-03-08T05:23:28.611Z,4.00
2023-03-08T05:25:58.082Z,3.90
2023-03-08T05:28:27.819Z,4.00
2023-03-08T05:31:11.001Z,4.00
2023-03-08T05:33:38.024Z,3.90
2023-03-08T05:36:06.001Z,3.90
2023-03-08T05:38:33.399Z,3.90
2023-03-08T05:41:05.482Z,3.90
2023-03-08T05:43:32.690Z,3.90
2023-03-08T05:46:00.765Z,3.90
2023-03-08T05:48:28.041Z,3.90
2023-03-08T05:50:55.376Z,4.00
2023-03-08T05:53:23.368Z,4.00
2023-03-08T05:55:50.218Z,4.00
2023-03-08T05:58:17.386Z,4.10
2023-03-08T06:00:44.237Z,4.10
2023-03-08T06:03:11.378Z,4.00
2023-03-08T06:05:38.284Z,4.00
2023-03-08T06:08:05.412Z,4.00
2023-03-08T06:10:32.283Z,4.00
2023-03-08T06:12:59.022Z,4.00
2023-03-08T06:15:25.858Z,4.00
2023-03-08T06:17:54.137Z,4.00
2023-03-08T06:20:21.015Z,4.10
2023-03-08T06:22:47.816Z,4.10
2023-03-08T06:25:14.781Z,4.20
2023-03-08T06:27:41.596Z,4.10
2023-03-08T06:30:09.165Z,4.10
2023-03-08T06:32:37.613Z,4.10
2023-03-08T06:35:04.947Z,4.10
2023-03-08T06:37:34.295Z,4.10
2023-03-08T06:40:02.132Z,4.00
2023-03-08T06:42:40.770Z,4.10
2023-03-08T06:45:09.463Z,4.00
2023-03-08T06:47:36.219Z,4.00
2023-03-08T06:50:03.100Z,4.00
2023-03-08T06:52:34.983Z,4.10
2023-03-08T06:55:01.755Z,4.10
2023-03-08T06:57:28.483Z,4.10
2023-03-08T06:59:55.373Z,4.10
2023-03-08T07:02:22.265Z,4.10
2023-03-08T07:04:49.805Z,4.00
2023-03-08T07:07:16.830Z,4.00
2023-03-08T07:09:43.734Z,3.90
2023-03-08T07:12:10.483Z,3.90
2023-03-08T07:14:37.415Z,3.90
2023-03-08T07:17:04.222Z,3.80
2023-03-08T07:19:31.902Z,3.80
2023-03-08T07:21:58.735Z,3.70
2023-03-08T07:24:25.608Z,3.60
2023-03-08T07:26:52.444Z,3.50
2023-03-08T07:29:19.294Z,3.40
2023-03-08T07:31:46.096Z,3.30
2023-03-08T07:34:12.896Z,3.20
2023-03-08T07:36:40.266Z,3.10
2023-03-08T07:39:07.232Z,3.00
2023-03-08T07:41:34.834Z,2.90
2023-03-08T07:44:02.581Z,2.80
2023-03-08T07:46:30.127Z,2.80
2023-03-08T07:48:57.010Z,2.70
2023-03-08T07:51:24.036Z,2.70
2023-03-08T07:53:52.644Z,2.60
2023-03-08T07:56:19.700Z,2.60
2023-03-08T07:58:46.539Z,2.60
2023-03-08T08:01:14.603Z,2.60
2023-03-08T08:03:41.873Z,2.60
2023-03-08T08:06:09.888Z,2.50
2023-03-08T08:08:36.809Z,2.50
2023-03-08T08:11:11.102Z,2.50
2023-03-08T08:17:36.866Z,2.50
2023-03-08T08:20:06.016Z,2.50
2023-03-08T08:22:37.718Z,2.40
2023-03-08T08:25:06.758Z,2.40
2023-03-08T08:27:33.958Z,2.40
2023-03-08T08:30:00.966Z,2.40
2023-03-08T08:32:27.871Z,2.40
2023-03-08T08:34:54.590Z,2.30
2023-03-08T08:37:21.731Z,2.30
2023-03-08T08:39:48.439Z,2.40
2023-03-08T08:42:15.138Z,2.40
2023-03-08T08:44:41.941Z,2.40
2023-03-08T08:47:08.800Z,2.30
2023-03-08T08:49:35.894Z,2.30
2023-03-08T08:52:02.668Z,2.40
2023-03-08T08:54:29.493Z,2.40
2023-03-08T08:56:56.341Z,2.50
2023-03-08T08:59:23.235Z,2.60
2023-03-08T09:01:50.110Z,2.60
2023-03-08T09:04:17.309Z,2.80
2023-03-08T09:06:44.236Z,2.80
2023-03-08T09:09:11.304Z,2.90
2023-03-08T09:11:53.395Z,2.90
2023-03-08T09:14:21.429Z,2.90
2023-03-08T09:16:48.459Z,2.90
2023-03-08T09:19:15.623Z,3.00
2023-03-08T09:21:42.450Z,3.00
2023-03-08T09:24:10.832Z,3.00
2023-03-08T09:26:37.693Z,3.00
2023-03-08T09:29:05.581Z,3.00
2023-03-08T09:31:34.145Z,3.00
2023-03-08T09:34:04.553Z,3.10
2023-03-08T09:36:31.417Z,3.00
2023-03-08T09:38:58.171Z,3.10
2023-03-08T09:41:27.930Z,3.10
2023-03-08T09:44:19.288Z,3.00
2023-03-08T09:46:51.400Z,3.10
2023-03-08T09:49:39.023Z,3.00
2023-03-08T09:52:23.029Z,3.10
2023-03-08T09:54:51.662Z,3.10
2023-03-08T09:57:27.086Z,3.00
2023-03-08T10:00:02.531Z,3.10
2023-03-08T10:03:02.731Z,3.10
2023-03-08T10:05:49.904Z,3.20
2023-03-08T10:08:31.464Z,3.10
2023-03-08T10:11:07.355Z,3.20
2023-03-08T10:13:39.983Z,3.20
2023-03-08T10:16:27.272Z,3.20
2023-03-08T10:19:00.331Z,3.20
2023-03-08T10:21:29.775Z,3.30
2023-03-08T10:24:11.947Z,3.30
2023-03-08T10:26:40.172Z,3.30
2023-03-08T10:29:06.959Z,3.40
2023-03-08T10:31:34.602Z,3.40
2023-03-08T10:34:12.011Z,3.50
2023-03-08T10:36:52.277Z,3.50
2023-03-08T10:39:20.197Z,3.60
2023-03-08T10:41:53.957Z,3.60
2023-03-08T10:44:40.776Z,3.60
2023-03-08T10:47:18.477Z,3.60
2023-03-08T10:49:47.284Z,3.60
2023-03-08T10:52:27.511Z,3.60
2023-03-08T10:55:05.839Z,3.60
2023-03-08T10:57:33.825Z,3.60
2023-03-08T11:00:19.479Z,3.50
2023-03-08T11:02:47.721Z,3.60
2023-03-08T11:05:22.383Z,3.60
2023-03-08T11:07:57.962Z,3.70
2023-03-08T11:10:31.738Z,3.70
2023-03-08T11:13:01.693Z,3.70
2023-03-08T11:15:32.762Z,3.80
2023-03-08T11:18:37.857Z,3.80
2023-03-08T11:21:14.781Z,3.90
2023-03-08T11:23:55.716Z,3.90
2023-03-08T11:26:38.874Z,3.80
2023-03-08T11:29:23.353Z,3.80
2023-03-08T11:32:29.454Z,3.80
2023-03-08T11:35:17.993Z,3.90
2023-03-08T11:37:49.305Z,4.00
2023-03-08T11:40:26.908Z,4.00
2023-03-08T11:43:00.213Z,4.00
2023-03-08T11:45:43.879Z,4.10
2023-03-08T11:48:22.677Z,4.10
2023-03-08T11:50:52.718Z,4.10
2023-03-08T11:53:19.458Z,4.20
2023-03-08T11:56:27.846Z,4.10
2023-03-08T11:59:02.193Z,4.00
2023-03-08T12:01:51.164Z,4.00
2023-03-08T12:04:24.976Z,4.10
2023-03-08T12:06:55.077Z,4.20
2023-03-08T12:09:55.640Z,4.20
2023-03-08T12:12:31.202Z,4.10
2023-03-08T12:15:07.526Z,4.20
2023-03-08T12:17:44.220Z,4.30
2023-03-08T12:20:15.637Z,4.40
2023-03-08T12:22:59.773Z,4.50
2023-03-08T12:25:34.272Z,4.60
2023-03-08T12:28:01.340Z,4.60
2023-03-08T12:30:59.493Z,4.60
2023-03-08T12:33:28.974Z,4.70
2023-03-08T12:36:04.863Z,4.80
2023-03-08T12:38:37.217Z,4.80
2023-03-08T12:41:07.350Z,4.90
2023-03-08T12:43:36.129Z,5.00
2023-03-08T12:46:09.795Z,5.00
2023-03-08T12:48:45.965Z,5.10
2023-03-08T12:51:12.772Z,5.20
2023-03-08T12:53:51.444Z,5.20
2023-03-08T12:56:29.249Z,5.20
2023-03-08T12:59:00.892Z,5.20
2023-03-08T13:01:37.534Z,5.20
2023-03-08T13:04:39.150Z,5.20
2023-03-08T13:07:26.555Z,5.30
2023-03-08T13:10:03.272Z,5.40
2023-03-08T13:13:04.255Z,5.30
2023-03-08T13:15:31.879Z,5.30
2023-03-08T13:18:00.606Z,5.40
2023-03-08T13:20:48.363Z,5.40
2023-03-08T13:23:15.110Z,5.50
2023-03-08T13:26:19.479Z,5.50
2023-03-08T13:28:48.427Z,5.60
2023-03-08T13:31:25.214Z,5.70
2023-03-08T13:33:54.332Z,5.60
2023-03-08T13:36:22.338Z,5.60
2023-03-08T13:39:21.731Z,5.60
2023-03-08T13:41:49.210Z,5.60
2023-03-08T13:44:18.971Z,5.50
2023-03-08T13:46:48.689Z,5.60
2023-03-08T13:49:31.478Z,5.80
2023-03-08T13:52:01.041Z,5.80
2023-03-08T14:15:18.264Z,6.00
2023-03-08T14:17:45.256Z,6.10
2023-03-08T14:20:24.750Z,6.10
2023-03-08T14:22:55.013Z,6.10
2023-03-08T14:25:23.490Z,6.10
2023-03-08T14:27:50.649Z,6.20
2023-03-08T14:30:21.823Z,6.30
2023-03-08T14:33:15.066Z,6.40
2023-03-08T14:35:52.379Z,6.40
2023-03-08T14:38:31.019Z,6.30
2023-03-08T14:41:00.885Z,6.30
2023-03-08T14:43:27.964Z,6.40
2023-03-08T14:45:56.017Z,6.30
2023-03-08T14:48:31.398Z,6.30
2023-03-08T14:51:00.180Z,6.40
2023-03-08T14:53:30.599Z,6.50
2023-03-08T15:17:16.672Z,6.80
2023-03-08T15:19:43.638Z,6.90
2023-03-08T15:22:13.825Z,6.80
2023-03-08T15:24:41.024Z,6.80
2023-03-08T15:27:11.739Z,6.80
2023-03-08T15:29:39.029Z,6.80
2023-03-08T15:32:06.079Z,6.70
2023-03-08T15:34:33.063Z,6.80
2023-03-08T15:36:59.791Z,6.70
2023-03-08T15:39:26.768Z,6.70
2023-03-08T15:41:53.567Z,6.60
2023-03-08T15:44:20.647Z,6.70
2023-03-08T15:46:47.778Z,6.80
2023-03-08T15:49:14.801Z,6.70
2023-03-08T15:51:42.586Z,6.70
2023-03-08T15:54:10.947Z,6.70
2023-03-08T15:56:37.873Z,6.70
2023-03-08T15:59:04.787Z,6.70
2023-03-08T16:01:33.365Z,6.80
2023-03-08T16:04:00.438Z,6.80
2023-03-08T16:06:27.438Z,6.80
2023-03-08T16:08:54.391Z,6.70
2023-03-08T16:11:22.486Z,6.60
2023-03-08T16:13:53.322Z,6.60
2023-03-08T16:16:21.242Z,6.80
2023-03-08T16:18:48.964Z,6.80
2023-03-08T16:21:16.007Z,6.80
2023-03-08T16:23:43.035Z,6.70
2023-03-08T16:26:16.404Z,6.70
2023-03-08T16:28:45.692Z,6.60
2023-03-08T16:31:13.064Z,6.70
2023-03-08T16:33:40.378Z,6.70
2023-03-08T16:36:07.819Z,6.60
2023-03-08T16:38:35.028Z,6.50
2023-03-08T16:41:12.256Z,6.50
2023-03-08T16:43:46.728Z,6.40
2023-03-08T16:46:16.679Z,6.50
2023-03-08T16:48:43.834Z,6.50
2023-03-08T16:51:14.832Z,6.50
2023-03-08T17:15:12.779Z,6.20
2023-03-08T17:17:40.558Z,6.20
2023-03-08T17:20:08.911Z,6.10
2023-03-08T17:22:35.826Z,6.20
2023-03-08T17:25:03.021Z,6.20
2023-03-08T17:27:29.880Z,6.20
2023-03-08T17:29:58.478Z,6.20
2023-03-08T17:32:25.550Z,6.10
2023-03-08T17:34:52.590Z,6.00
2023-03-08T17:37:19.364Z,6.00
2023-03-08T17:39:46.266Z,5.90
2023-03-08T17:42:13.148Z,5.80
2023-03-08T17:44:40.161Z,5.70
2023-03-08T17:47:07.044Z,5.70
2023-03-08T17:49:34.190Z,5.70
2023-03-08T17:52:00.948Z,5.70
2023-03-08T18:19:07.332Z,6.40
2023-03-08T18:21:36.191Z,6.30
2023-03-08T18:24:05.153Z,6.20
2023-03-08T18:26:32.179Z,6.10
2023-03-08T18:28:59.872Z,6.20
2023-03-08T18:31:27.136Z,6.40
2023-03-08T18:33:55.429Z,6.70
2023-03-08T18:36:23.190Z,6.90
2023-03-08T18:38:50.426Z,6.90
2023-03-08T18:41:25.471Z,6.90
2023-03-08T18:43:54.668Z,6.90
2023-03-08T18:46:29.226Z,6.90
2023-03-08T18:48:58.567Z,6.90
2023-03-08T18:51:25.504Z,6.90
2023-03-08T18:53:54.320Z,6.90
2023-03-08T18:56:22.440Z,7.00
2023-03-08T18:58:49.264Z,7.00
2023-03-08T19:01:17.042Z,7.00
2023-03-08T19:03:44.846Z,6.90
2023-03-08T19:06:13.172Z,6.90
2023-03-08T19:08:40.757Z,7.00
2023-03-08T19:11:16.618Z,7.00
2023-03-08T19:13:44.107Z,7.00
2023-03-08T19:16:25.287Z,7.10
2023-03-08T19:19:04.372Z,7.10
2023-03-08T19:21:36.490Z,7.20
2023-03-08T19:24:03.960Z,7.30
2023-03-08T19:26:38.189Z,7.30
2023-03-08T19:29:09.685Z,7.30
2023-03-08T19:31:44.763Z,7.40
2023-03-08T19:34:13.367Z,7.30
2023-03-08T19:36:41.870Z,7.40
2023-03-08T19:39:15.036Z,7.30
2023-03-08T19:41:42.592Z,7.30
2023-03-08T19:44:10.160Z,7.20
2023-03-08T19:46:38.840Z,7.20
2023-03-08T19:49:08.004Z,7.20
2023-03-08T19:51:35.811Z,7.20
2023-03-08T19:54:03.231Z,7.30
2023-03-08T19:56:30.212Z,7.30
2023-03-08T19:58:57.263Z,7.40
2023-03-08T20:01:24.241Z,7.30
2023-03-08T20:03:51.260Z,7.30
2023-03-08T20:06:36.012Z,7.40
2023-03-08T20:09:04.916Z,7.40
2023-03-08T20:11:32.022Z,7.40
2023-03-08T20:13:59.020Z,7.40
2023-03-08T20:16:27.608Z,7.30
2023-03-08T20:18:58.035Z,7.30
2023-03-08T20:21:29.943Z,7.20
2023-03-08T20:23:57.605Z,7.20
2023-03-08T20:26:33.963Z,7.20
2023-03-08T20:29:02.205Z,7.10
2023-03-08T20:31:30.467Z,7.10
2023-03-08T20:33:58.318Z,7.10
2023-03-08T20:36:25.516Z,7.10
2023-03-08T20:38:52.770Z,7.00
2023-03-08T20:41:21.984Z,7.00
2023-03-08T20:43:50.585Z,6.90
2023-03-08T20:46:20.198Z,6.90
2023-03-08T20:48:47.568Z,6.80
2023-03-08T20:51:17.072Z,6.80
2023-03-08T20:53:44.869Z,6.70
2023-03-08T20:56:16.032Z,6.70
2023-03-08T20:58:43.616Z,6.70
2023-03-08T21:01:19.672Z,6.70
2023-03-08T21:03:47.774Z,6.70
2023-03-08T21:06:18.907Z,6.70
2023-03-08T21:08:46.234Z,6.60
2023-03-08T21:11:13.028Z,6.60
2023-03-08T21:13:40.190Z,6.60
2023-03-08T21:16:09.844Z,6.60
2023-03-08T21:18:36.735Z,6.70
2023-03-08T21:21:04.027Z,6.70
2023-03-08T21:23:30.865Z,6.70
2023-03-08T21:26:01.271Z,6.80
2023-03-08T21:28:28.168Z,6.80
2023-03-08T21:30:55.102Z,6.70
2023-03-08T21:33:22.095Z,6.80
2023-03-08T21:35:48.901Z,6.80
2023-03-08T21:38:15.877Z,6.90
2023-03-08T21:40:43.357Z,6.80
2023-03-08T21:43:10.332Z,7.00
2023-03-08T21:45:41.840Z,6.90
2023-03-08T21:48:10.755Z,6.90
2023-03-08T21:50:40.791Z,7.00
2023-03-08T21:53:08.504Z,7.00
2023-03-08T21:55:39.440Z,6.90
2023-03-08T21:58:06.599Z,6.90
2023-03-08T22:00:33.403Z,6.90
2023-03-08T22:03:00.540Z,6.90
2023-03-08T22:05:27.381Z,6.90
2023-03-08T22:07:54.195Z,6.90
2023-03-08T22:10:21.064Z,6.90
2023-03-08T22:12:48.543Z,6.80
2023-03-08T22:15:15.821Z,6.70
2023-03-08T22:17:43.395Z,6.60
2023-03-08T22:20:10.970Z,6.60
2023-03-08T22:22:38.896Z,6.60
2023-03-08T22:25:06.938Z,6.60
2023-03-08T22:27:34.139Z,6.60
2023-03-08T22:30:00.915Z,6.60
2023-03-08T22:32:27.752Z,6.60
2023-03-08T22:34:54.570Z,6.60
2023-03-08T22:37:21.383Z,6.60
2023-03-08T22:39:48.366Z,6.70
2023-03-08T22:42:16.636Z,6.60
2023-03-08T22:44:43.644Z,6.70
2023-03-08T22:47:10.496Z,6.60
2023-03-08T22:49:37.477Z,6.60
2023-03-08T22:52:04.789Z,6.60
2023-03-08T22:54:31.532Z,6.60
2023-03-08T22:56:58.845Z,6.60
2023-03-08T22:59:25.821Z,6.60
2023-03-08T23:01:53.947Z,6.70
2023-03-08T23:04:21.167Z,6.70
2023-03-08T23:06:48.280Z,6.70
2023-03-08T23:09:17.126Z,6.70
2023-03-08T23:11:44.380Z,6.70
2023-03-08T23:14:12.198Z,6.70
2023-03-08T23:16:44.870Z,6.70
2023-03-08T23:19:18.250Z,6.70
2023-03-08T23:21:45.116Z,6.60
2023-03-08T23:24:11.892Z,6.60
2023-03-08T23:26:38.899Z,6.70
2023-03-08T23:29:06.824Z,6.70
2023-03-08T23:31:36.988Z,6.60
2023-03-08T23:34:05.325Z,6.70
2023-03-08T23:36:33.165Z,6.60
2023-03-08T23:39:04.672Z,6.60
2023-03-08T23:41:32.479Z,6.70
2023-03-08T23:44:01.583Z,6.60
2023-03-08T23:46:28.994Z,6.60
2023-03-08T23:48:57.651Z,6.60
2023-03-08T23:51:27.386Z,6.60
